Time;durP1;ratioP1;P1;durP2;ratioP2;P2;SDS_P1;SDS_P2;PMS_P1;PMS_P2;Temp;Humidity;BMP_temperature;BMP_pressure;BME280_temperature;BME280_humidity;BME280_pressure;Samples;Min_cycle;Max_cycle;Signal;HPM_P1;HPM_P2
2024/01/28 00:01:41;;;;;;;38.83;19.27;;;2.20;99.90;;;;;;4881202;29;20059;-75
2024/01/28 00:04:08;;;;;;;38.92;18.77;;;2.10;99.90;;;;;;4882322;29;20057;-76
2024/01/28 00:06:33;;;;;;;31.75;17.90;;;2.10;99.90;;;;;;4865497;29;20060;-76
2024/01/28 00:08:59;;;;;;;35.85;17.90;;;2.10;99.90;;;;;;4865757;29;20049;-76
2024/01/28 00:11:27;;;;;;;42.97;18.17;;;2.10;99.90;;;;;;4865326;29;20063;-76
2024/01/28 00:13:52;;;;;;;38.03;18.60;;;2.10;99.90;;;;;;4865385;29;20057;-76
2024/01/28 00:16:22;;;;;;;34.03;17.17;;;2.20;99.90;;;;;;4865424;29;20056;-76
2024/01/28 00:18:48;;;;;;;38.45;16.75;;;2.10;99.90;;;;;;4865608;29;20045;-76
2024/01/28 00:21:14;;;;;;;37.95;16.85;;;2.10;99.90;;;;;;4865512;29;20045;-76
2024/01/28 00:23:40;;;;;;;36.47;17.02;;;2.10;99.90;;;;;;4865066;29;20141;-76
2024/01/28 00:26:07;;;;;;;37.33;17.92;;;2.20;99.90;;;;;;4865369;29;20132;-76
2024/01/28 00:28:32;;;;;;;32.58;17.90;;;2.10;99.90;;;;;;4865180;29;20485;-76
2024/01/28 00:30:58;;;;;;;38.72;18.58;;;2.20;99.90;;;;;;4865017;29;20104;-75
2024/01/28 00:33:23;;;;;;;34.50;16.70;;;2.10;99.90;;;;;;4865139;29;20060;-76
2024/01/28 00:35:49;;;;;;;31.33;17.52;;;2.20;99.90;;;;;;4865196;29;20477;-76
2024/01/28 00:38:17;;;;;;;42.38;19.08;;;2.10;99.90;;;;;;4864927;29;20139;-76
2024/01/28 00:40:43;;;;;;;36.00;16.92;;;2.10;99.90;;;;;;4864940;29;20063;-76
2024/01/28 00:43:09;;;;;;;35.30;16.65;;;2.10;99.90;;;;;;4864900;29;20047;-76
2024/01/28 00:45:34;;;;;;;32.40;16.88;;;2.10;99.90;;;;;;4864890;29;20053;-76
2024/01/28 00:48:00;;;;;;;36.00;16.65;;;2.00;99.90;;;;;;4864962;29;20056;-76
2024/01/28 00:50:25;;;;;;;33.95;17.10;;;2.00;99.90;;;;;;4865054;29;20052;-75
2024/01/28 00:52:51;;;;;;;36.13;16.85;;;2.00;99.90;;;;;;4864768;29;20044;-76
2024/01/28 00:55:17;;;;;;;25.15;15.25;;;2.00;99.90;;;;;;4864992;29;20064;-76
2024/01/28 00:57:42;;;;;;;35.75;15.40;;;2.00;99.90;;;;;;4864793;29;20100;-76
2024/01/28 01:00:10;;;;;;;27.17;16.65;;;2.00;99.90;;;;;;4864834;29;20076;-76
2024/01/28 01:02:36;;;;;;;29.67;16.30;;;2.00;99.90;;;;;;4879998;29;20049;-76
2024/01/28 01:05:01;;;;;;;30.83;16.10;;;2.00;99.90;;;;;;4863942;29;20048;-76
2024/01/28 01:07:30;;;;;;;33.28;15.57;;;1.90;99.90;;;;;;4864052;29;20084;-76
2024/01/28 01:09:56;;;;;;;32.38;15.18;;;2.00;99.90;;;;;;4864609;29;20084;-76
2024/01/28 01:12:25;;;;;;;28.13;14.68;;;2.00;99.90;;;;;;4864252;29;20091;-76
2024/01/28 01:14:51;;;;;;;31.17;14.40;;;2.00;99.90;;;;;;4864282;29;20497;-76
2024/01/28 01:17:17;;;;;;;27.80;15.60;;;2.00;99.90;;;;;;4864936;29;20066;-76
2024/01/28 01:19:42;;;;;;;35.92;15.07;;;2.10;99.90;;;;;;4864489;29;20053;-76
2024/01/28 01:22:08;;;;;;;30.55;14.70;;;2.10;99.90;;;;;;4881328;29;20074;-76
2024/01/28 01:24:34;;;;;;;30.08;14.88;;;2.10;99.90;;;;;;4864165;29;20053;-76
2024/01/28 01:26:59;;;;;;;34.70;16.60;;;2.10;99.90;;;;;;4864428;29;20553;-76
2024/01/28 01:29:25;;;;;;;28.88;15.13;;;2.10;99.90;;;;;;4864205;29;20049;-76
2024/01/28 01:31:51;;;;;;;34.60;16.40;;;2.00;99.90;;;;;;4864317;29;20049;-76
2024/01/28 01:34:17;;;;;;;37.05;15.13;;;2.00;99.90;;;;;;4863922;29;20482;-76
2024/01/28 01:36:43;;;;;;;33.10;14.35;;;2.00;99.90;;;;;;4879511;29;20185;-76
2024/01/28 01:39:09;;;;;;;29.20;14.07;;;2.00;99.90;;;;;;4879383;29;20056;-76
2024/01/28 01:41:34;;;;;;;33.40;14.35;;;2.00;99.90;;;;;;4880635;29;20045;-76
2024/01/28 01:44:00;;;;;;;31.10;15.25;;;2.00;99.90;;;;;;4863652;29;20413;-76
2024/01/28 01:46:27;;;;;;;31.92;14.70;;;2.00;99.90;;;;;;4863865;29;20185;-76
2024/01/28 01:48:53;;;;;;;33.30;14.13;;;2.00;99.90;;;;;;4863726;29;20092;-76
2024/01/28 01:51:23;;;;;;;30.38;15.35;;;2.00;99.90;;;;;;4863965;29;20049;-76
2024/01/28 01:53:49;;;;;;;28.50;14.35;;;2.00;99.90;;;;;;4882324;29;20056;-76
2024/01/28 01:56:15;;;;;;;34.30;13.50;;;2.00;99.90;;;;;;4882546;29;20041;-76
2024/01/28 01:58:42;;;;;;;29.67;14.20;;;2.00;99.90;;;;;;4882233;29;20056;-76
2024/01/28 02:01:08;;;;;;;28.25;15.57;;;1.90;99.90;;;;;;4882034;29;20401;-76
2024/01/28 02:03:34;;;;;;;26.90;13.30;;;2.00;99.90;;;;;;4882022;29;20519;-76
2024/01/28 02:05:59;;;;;;;31.63;14.05;;;1.90;99.90;;;;;;4882384;29;20048;-76
2024/01/28 02:08:26;;;;;;;28.48;14.35;;;1.90;99.90;;;;;;4898925;29;20044;-76
2024/01/28 02:10:55;;;;;;;25.55;13.80;;;1.90;99.90;;;;;;4881789;29;20067;-76
2024/01/28 02:13:21;;;;;;;26.10;13.30;;;1.90;99.90;;;;;;4881965;29;20060;-76
2024/01/28 02:15:46;;;;;;;32.30;13.93;;;1.90;99.90;;;;;;4881932;29;20040;-76
2024/01/28 02:18:12;;;;;;;26.25;12.43;;;1.90;99.90;;;;;;4881699;29;20048;-76
2024/01/28 02:20:38;;;;;;;21.23;11.95;;;2.00;99.90;;;;;;4882159;29;20067;-76
2024/01/28 02:23:05;;;;;;;27.15;12.93;;;2.00;99.90;;;;;;4882137;29;20048;-76
2024/01/28 02:25:31;;;;;;;28.23;13.55;;;1.90;99.90;;;;;;4898741;29;20048;-76
2024/01/28 02:28:00;;;;;;;29.58;12.48;;;1.90;99.90;;;;;;4882135;29;20131;-76
2024/01/28 02:30:25;;;;;;;25.92;12.98;;;1.90;99.90;;;;;;4881633;29;20048;-76
2024/01/28 02:32:52;;;;;;;23.67;12.40;;;1.90;99.90;;;;;;4882088;29;20047;-76
2024/01/28 02:35:18;;;;;;;34.92;13.75;;;1.90;99.90;;;;;;4881957;29;20052;-76
2024/01/28 02:37:44;;;;;;;27.65;13.27;;;1.90;99.90;;;;;;4881724;29;20473;-76
2024/01/28 02:40:10;;;;;;;24.02;12.32;;;1.90;99.90;;;;;;4881961;29;20539;-76
2024/01/28 02:42:36;;;;;;;23.77;14.05;;;1.90;99.90;;;;;;4881896;29;20056;-76
2024/01/28 02:45:02;;;;;;;24.92;12.88;;;1.90;99.90;;;;;;4881505;29;20052;-76
2024/01/28 02:47:28;;;;;;;23.40;13.10;;;1.90;99.90;;;;;;4881590;29;20049;-76
2024/01/28 02:49:53;;;;;;;21.80;12.55;;;2.00;99.90;;;;;;4881606;29;20553;-76
2024/01/28 02:52:19;;;;;;;25.23;11.75;;;2.00;99.90;;;;;;4871451;29;20041;-76
2024/01/28 02:54:44;;;;;;;27.98;13.68;;;2.00;99.90;;;;;;4863254;29;20200;-75
2024/01/28 02:57:10;;;;;;;26.55;14.55;;;2.00;99.90;;;;;;4863011;29;20049;-76
2024/01/28 02:59:38;;;;;;;22.45;11.45;;;2.00;99.90;;;;;;4862865;29;20517;-76
2024/01/28 03:02:04;;;;;;;25.60;12.68;;;2.10;99.90;;;;;;4862827;29;20086;-76
2024/01/28 03:04:30;;;;;;;26.60;12.43;;;2.10;99.90;;;;;;4862802;29;20087;-76
2024/01/28 03:06:55;;;;;;;20.77;11.32;;;2.20;99.90;;;;;;4863206;29;20052;-76
2024/01/28 03:09:21;;;;;;;23.67;12.10;;;2.20;99.90;;;;;;4862917;29;20526;-76
2024/01/28 03:11:50;;;;;;;22.40;12.70;;;2.20;99.90;;;;;;4872219;29;20064;-76
2024/01/28 03:14:17;;;;;;;25.67;13.52;;;2.30;99.90;;;;;;4862682;29;20072;-76
2024/01/28 03:16:42;;;;;;;26.80;11.95;;;2.30;99.90;;;;;;4862896;29;20045;-76
2024/01/28 03:19:08;;;;;;;27.50;12.85;;;2.30;99.90;;;;;;4863055;29;20064;-76
2024/01/28 03:21:33;;;;;;;25.60;12.60;;;2.30;99.90;;;;;;4862797;29;20097;-76
2024/01/28 03:23:59;;;;;;;27.67;12.82;;;2.30;99.90;;;;;;4862639;29;20136;-76
2024/01/28 03:26:25;;;;;;;24.35;12.05;;;2.30;99.90;;;;;;4862533;29;20386;-76
2024/01/28 03:28:50;;;;;;;26.55;14.70;;;2.30;99.90;;;;;;4863434;29;20088;-76
2024/01/28 03:31:19;;;;;;;23.83;11.93;;;2.20;99.90;;;;;;4866413;29;20494;-76
2024/01/28 03:33:45;;;;;;;23.98;12.05;;;2.20;99.90;;;;;;4850644;29;20193;-76
2024/01/28 03:36:13;;;;;;;21.58;11.73;;;2.20;99.90;;;;;;4866074;29;20041;-76
2024/01/28 03:38:39;;;;;;;27.58;13.15;;;2.20;99.90;;;;;;4866365;29;20068;-76
2024/01/28 03:41:05;;;;;;;24.70;13.93;;;2.20;99.90;;;;;;4866187;29;20048;-76
2024/01/28 03:43:37;;;;;;;24.75;13.02;;;2.20;99.90;;;;;;4866072;29;20136;-76
2024/01/28 03:46:03;;;;;;;25.52;12.90;;;2.20;99.90;;;;;;4866046;29;20056;-76
2024/01/28 03:48:28;;;;;;;23.13;13.63;;;2.20;99.90;;;;;;4866229;29;20053;-76
2024/01/28 03:50:54;;;;;;;24.88;12.70;;;2.20;99.90;;;;;;4866073;29;20049;-76
2024/01/28 03:53:20;;;;;;;31.33;13.15;;;2.20;99.90;;;;;;4866158;29;20045;-76
2024/01/28 03:55:45;;;;;;;28.80;12.93;;;2.30;99.90;;;;;;4865947;29;20486;-76
2024/01/28 03:58:11;;;;;;;25.92;12.95;;;2.30;99.90;;;;;;4865763;29;20045;-76
2024/01/28 04:00:37;;;;;;;21.35;12.95;;;2.30;99.90;;;;;;4865923;29;20057;-76
2024/01/28 04:03:03;;;;;;;25.30;13.15;;;2.30;99.90;;;;;;4865871;29;20041;-76
2024/01/28 04:05:28;;;;;;;22.90;13.75;;;2.30;99.90;;;;;;4865948;29;20486;-76
2024/01/28 04:07:54;;;;;;;25.00;13.50;;;2.30;99.90;;;;;;4865291;29;20124;-76
2024/01/28 04:10:23;;;;;;;25.05;13.85;;;2.20;99.90;;;;;;4865297;29;20048;-76
2024/01/28 04:12:49;;;;;;;23.90;13.15;;;2.20;99.90;;;;;;4865434;29;20144;-76
2024/01/28 04:15:15;;;;;;;23.92;13.40;;;2.20;99.90;;;;;;4865625;29;20049;-76
2024/01/28 04:17:40;;;;;;;26.27;13.10;;;2.20;99.90;;;;;;4882305;29;20430;-76
2024/01/28 04:20:08;;;;;;;27.40;14.30;;;2.20;99.90;;;;;;4880956;29;20056;-76
2024/01/28 04:22:34;;;;;;;25.20;12.93;;;2.20;99.90;;;;;;4865385;29;20123;-76
2024/01/28 04:24:59;;;;;;;26.13;14.85;;;2.10;99.90;;;;;;4865301;29;20132;-76
2024/01/28 04:27:25;;;;;;;27.88;15.75;;;2.10;99.90;;;;;;4881826;29;20096;-76
2024/01/28 04:29:51;;;;;;;32.45;15.85;;;2.10;99.90;;;;;;4865193;29;20060;-76
2024/01/28 04:32:17;;;;;;;34.60;14.98;;;2.00;99.90;;;;;;4865191;29;20048;-76
2024/01/28 04:34:42;;;;;;;31.30;16.23;;;2.00;99.90;;;;;;4865236;29;20057;-76
2024/01/28 04:37:08;;;;;;;29.38;15.23;;;2.00;99.90;;;;;;4865367;29;20127;-76
2024/01/28 04:39:37;;;;;;;27.60;15.38;;;2.00;99.90;;;;;;4881345;29;20057;-76
2024/01/28 04:42:03;;;;;;;28.38;15.45;;;2.00;99.90;;;;;;4864133;29;20455;-76
2024/01/28 04:44:28;;;;;;;29.63;16.25;;;2.00;99.90;;;;;;4881629;29;20049;-76
2024/01/28 04:46:57;;;;;;;27.15;16.50;;;2.00;99.90;;;;;;4864733;29;20406;-76
2024/01/28 04:49:25;;;;;;;28.88;17.08;;;2.00;99.90;;;;;;4865210;29;20053;-76
2024/01/28 04:51:51;;;;;;;27.27;15.68;;;2.00;99.90;;;;;;4865166;29;20573;-76
2024/01/28 04:54:17;;;;;;;28.10;16.65;;;1.90;99.90;;;;;;4864835;29;20131;-76
2024/01/28 04:56:44;;;;;;;32.17;16.15;;;1.90;99.90;;;;;;4865021;29;20561;-76
2024/01/28 04:59:10;;;;;;;34.45;17.30;;;1.90;99.90;;;;;;4864534;29;20049;-76
2024/01/28 05:01:35;;;;;;;27.77;17.00;;;1.90;99.90;;;;;;4864900;29;20113;-76
2024/01/28 05:04:01;;;;;;;27.63;16.35;;;1.90;99.90;;;;;;4864790;29;20068;-76
2024/01/28 05:06:34;;;;;;;25.58;16.17;;;1.90;99.90;;;;;;4864852;29;20132;-76
2024/01/28 05:09:03;;;;;;;;;;;1.90;99.90;;;;;;4865113;29;20398;-76
2024/01/28 05:11:31;;;;;;;25.48;16.20;;;1.80;99.90;;;;;;4864379;29;19967;-76
2024/01/28 05:13:58;;;;;;;32.55;18.55;;;1.90;99.90;;;;;;4864684;29;20049;-76
2024/01/28 05:16:24;;;;;;;33.03;18.85;;;1.80;99.90;;;;;;4864679;29;20063;-76
2024/01/28 05:18:51;;;;;;;29.65;18.35;;;1.80;99.90;;;;;;4864404;29;20113;-76
2024/01/28 05:21:18;;;;;;;32.42;20.15;;;1.80;99.90;;;;;;4864155;29;20044;-76
2024/01/28 05:23:45;;;;;;;31.45;18.42;;;1.80;99.90;;;;;;4864105;29;20048;-76
2024/01/28 05:26:13;;;;;;;34.17;18.60;;;1.70;99.90;;;;;;4864120;29;20105;-76
2024/01/28 05:28:38;;;;;;;28.08;18.60;;;1.70;99.90;;;;;;4864449;29;20060;-76
2024/01/28 05:31:04;;;;;;;27.55;18.67;;;1.70;99.90;;;;;;4864205;29;20045;-76
2024/01/28 05:33:33;;;;;;;27.85;18.02;;;1.60;99.90;;;;;;4864404;29;20041;-76
2024/01/28 05:36:00;;;;;;;33.33;18.75;;;1.60;99.90;;;;;;4864161;29;20397;-76
2024/01/28 05:38:26;;;;;;;35.72;19.75;;;1.60;99.90;;;;;;4863997;29;20052;-76
2024/01/28 05:40:52;;;;;;;32.92;17.40;;;1.60;99.90;;;;;;4864003;29;20052;-76
2024/01/28 05:43:17;;;;;;;34.83;18.33;;;1.60;99.90;;;;;;4864053;29;20048;-76
2024/01/28 05:45:43;;;;;;;33.35;19.88;;;1.60;99.90;;;;;;4880636;29;20052;-76
2024/01/28 05:48:09;;;;;;;32.97;19.65;;;1.60;99.90;;;;;;4864004;29;20033;-76
2024/01/28 05:50:34;;;;;;;30.50;19.42;;;1.50;99.90;;;;;;4863740;29;20061;-76
2024/01/28 05:53:00;;;;;;;28.10;18.10;;;1.60;99.90;;;;;;4880177;29;20048;-76
2024/01/28 05:55:25;;;;;;;32.90;19.35;;;1.50;99.90;;;;;;4863747;29;20092;-76
2024/01/28 05:57:53;;;;;;;32.13;18.58;;;1.50;99.90;;;;;;4863722;29;20041;-76
2024/01/28 06:00:19;;;;;;;28.20;18.27;;;1.50;99.90;;;;;;4863916;29;20079;-76
2024/01/28 06:02:45;;;;;;;24.77;17.90;;;1.50;99.90;;;;;;4863697;29;20477;-76
2024/01/28 06:05:11;;;;;;;31.60;18.50;;;1.50;99.90;;;;;;4878929;29;20052;-76
2024/01/28 06:07:36;;;;;;;30.45;17.15;;;1.50;99.90;;;;;;4863786;29;20363;-76
2024/01/28 06:10:02;;;;;;;33.65;18.35;;;1.50;99.90;;;;;;4863414;29;20461;-76
2024/01/28 06:12:28;;;;;;;34.10;17.63;;;1.40;99.90;;;;;;4863294;29;20072;-76
2024/01/28 06:14:57;;;;;;;33.22;18.33;;;1.40;99.90;;;;;;4863513;29;20061;-76
2024/01/28 06:17:23;;;;;;;32.17;17.58;;;1.40;99.90;;;;;;4863331;29;20049;-76
2024/01/28 06:19:50;;;;;;;35.20;19.58;;;1.40;99.90;;;;;;4878900;29;20084;-76
2024/01/28 06:22:16;;;;;;;29.55;19.23;;;1.40;99.90;;;;;;4863190;29;20155;-76
2024/01/28 06:24:42;;;;;;;30.95;17.98;;;1.40;99.90;;;;;;4863320;29;20040;-76
2024/01/28 06:27:09;;;;;;;31.38;18.08;;;1.30;99.90;;;;;;4863213;29;20052;-76
2024/01/28 06:29:35;;;;;;;30.73;16.98;;;1.40;99.90;;;;;;4863481;29;20104;-76
2024/01/28 06:32:00;;;;;;;33.33;18.15;;;1.30;99.90;;;;;;4863397;29;20044;-76
2024/01/28 06:34:29;;;;;;;27.38;18.15;;;1.30;99.90;;;;;;4863283;29;20059;-76
2024/01/28 06:36:54;;;;;;;27.70;17.58;;;1.30;99.90;;;;;;4863232;29;20045;-76
2024/01/28 06:39:20;;;;;;;37.20;19.75;;;1.30;99.90;;;;;;4863435;29;20049;-76
2024/01/28 06:41:47;;;;;;;34.92;19.65;;;1.20;99.90;;;;;;4863533;29;20084;-77
2024/01/28 06:44:16;;;;;;;28.30;18.10;;;1.20;99.90;;;;;;4879552;29;20049;-76
2024/01/28 06:46:41;;;;;;;34.17;19.23;;;1.20;99.90;;;;;;4863216;29;20540;-76
2024/01/28 06:49:07;;;;;;;29.52;17.88;;;1.20;99.90;;;;;;4863324;29;20143;-76
2024/01/28 06:51:33;;;;;;;31.88;17.30;;;1.10;99.90;;;;;;4862993;29;20052;-76
2024/01/28 06:53:58;;;;;;;28.23;16.92;;;1.20;99.90;;;;;;4863034;29;20052;-76
2024/01/28 06:56:24;;;;;;;34.35;18.92;;;1.20;99.90;;;;;;4863194;29;20128;-76
2024/01/28 06:58:49;;;;;;;26.38;17.20;;;1.20;99.90;;;;;;4862827;29;20052;-76
2024/01/28 07:01:15;;;;;;;28.85;17.75;;;1.10;99.90;;;;;;4863184;29;20048;-76
2024/01/28 07:03:41;;;;;;;30.42;17.85;;;1.20;99.90;;;;;;4863733;29;20513;-76
2024/01/28 07:06:07;;;;;;;27.70;16.35;;;1.10;99.90;;;;;;4883509;29;20060;-76
2024/01/28 07:08:33;;;;;;;30.10;16.92;;;1.10;99.90;;;;;;4866559;29;20049;-76
2024/01/28 07:11:01;;;;;;;32.30;17.73;;;1.10;99.90;;;;;;4865788;29;20057;-76
2024/01/28 07:13:30;;;;;;;30.20;17.90;;;1.10;99.90;;;;;;4866129;29;20056;-76
2024/01/28 07:15:55;;;;;;;27.35;16.58;;;1.10;99.90;;;;;;4866569;29;20053;-76
2024/01/28 07:18:21;;;;;;;33.38;16.83;;;1.10;99.90;;;;;;4866316;29;20049;-76
2024/01/28 07:20:46;;;;;;;31.42;17.23;;;1.10;99.90;;;;;;4866474;29;20045;-76
2024/01/28 07:23:12;;;;;;;28.98;17.00;;;1.10;99.90;;;;;;4882917;29;20538;-76
2024/01/28 07:25:38;;;;;;;28.52;19.00;;;1.10;99.90;;;;;;4866465;29;20146;-77
2024/01/28 07:28:03;;;;;;;28.90;17.10;;;1.10;99.90;;;;;;4866057;29;20456;-76
2024/01/28 07:30:31;;;;;;;32.70;19.20;;;1.10;99.90;;;;;;4866326;29;20080;-76
2024/01/28 07:32:56;;;;;;;30.05;17.95;;;1.10;99.90;;;;;;4866268;29;20133;-76
2024/01/28 07:35:22;;;;;;;29.88;18.98;;;1.10;99.90;;;;;;4866005;29;20093;-76
2024/01/28 07:37:48;;;;;;;29.38;17.55;;;1.10;99.90;;;;;;4882773;29;20045;-76
2024/01/28 07:40:13;;;;;;;25.55;15.63;;;1.10;99.90;;;;;;4882582;29;20124;-76
2024/01/28 07:42:39;;;;;;;30.63;17.08;;;1.10;99.90;;;;;;4865746;29;20053;-76
2024/01/28 07:45:05;;;;;;;28.45;17.67;;;1.10;99.90;;;;;;4865728;29;20051;-76
2024/01/28 07:47:31;;;;;;;28.10;18.38;;;1.10;99.90;;;;;;4865774;29;20045;-76
2024/01/28 07:49:56;;;;;;;32.03;20.88;;;1.10;99.90;;;;;;4881514;29;20128;-76
2024/01/28 07:52:22;;;;;;;26.92;18.10;;;1.10;99.90;;;;;;4882532;29;20096;-76
2024/01/28 07:54:48;;;;;;;27.33;18.10;;;1.10;99.90;;;;;;4865904;29;20483;-76
2024/01/28 07:57:13;;;;;;;26.50;16.92;;;1.10;99.90;;;;;;4865550;29;20049;-76
2024/01/28 07:59:39;;;;;;;27.25;16.52;;;1.10;99.90;;;;;;4865656;29;20093;-76
2024/01/28 08:02:05;;;;;;;25.35;16.58;;;1.10;99.90;;;;;;4865643;29;20045;-76
2024/01/28 08:04:30;;;;;;;24.73;15.15;;;1.20;99.90;;;;;;4865314;29;20084;-76
2024/01/28 08:06:56;;;;;;;26.27;16.52;;;1.20;99.90;;;;;;4865063;29;20128;-75
2024/01/28 08:09:21;;;;;;;25.35;14.85;;;1.20;99.90;;;;;;4859977;29;20130;-75
2024/01/28 08:11:47;;;;;;;24.50;15.70;;;1.30;99.90;;;;;;4854739;29;20064;-75
2024/01/28 08:14:13;;;;;;;21.23;13.50;;;1.30;99.90;;;;;;4846586;29;20497;-75
2024/01/28 08:16:38;;;;;;;23.10;14.63;;;1.30;99.90;;;;;;4846597;29;20129;-74
2024/01/28 08:19:04;;;;;;;27.25;15.88;;;1.30;99.90;;;;;;4846944;29;20140;-74
2024/01/28 08:21:31;;;;;;;26.65;15.13;;;1.40;99.90;;;;;;4863283;29;20098;-75
2024/01/28 08:23:57;;;;;;;23.30;15.38;;;1.40;99.90;;;;;;4846510;29;20055;-75
2024/01/28 08:26:23;;;;;;;30.38;16.20;;;1.40;99.90;;;;;;4846507;29;20049;-75
2024/01/28 08:28:49;;;;;;;27.20;14.98;;;1.40;99.90;;;;;;4846566;29;20057;-74
2024/01/28 08:31:17;;;;;;;23.17;13.75;;;1.50;99.90;;;;;;4846260;29;20049;-74
2024/01/28 08:33:43;;;;;;;21.77;13.45;;;1.50;99.90;;;;;;4846384;29;20402;-74
2024/01/28 08:36:08;;;;;;;20.05;13.00;;;1.50;99.90;;;;;;4846676;29;20509;-77
2024/01/28 08:38:37;;;;;;;26.17;14.90;;;1.50;99.90;;;;;;4846504;29;20050;-74
2024/01/28 08:41:03;;;;;;;19.02;12.50;;;1.60;99.90;;;;;;4846245;29;20182;-74
2024/01/28 08:43:29;;;;;;;31.05;14.15;;;1.70;99.90;;;;;;4846353;29;20125;-74
2024/01/28 08:45:55;;;;;;;23.52;13.98;;;1.70;99.90;;;;;;4846311;29;20505;-74
2024/01/28 08:48:20;;;;;;;19.90;12.57;;;1.80;99.90;;;;;;4846192;29;20530;-74
2024/01/28 08:50:46;;;;;;;22.00;13.48;;;1.80;99.90;;;;;;4846484;29;20045;-74
2024/01/28 08:53:11;;;;;;;19.52;12.57;;;1.90;99.90;;;;;;4846305;29;20045;-74
2024/01/28 08:55:37;;;;;;;24.48;14.15;;;2.00;99.90;;;;;;4846345;29;20426;-76
2024/01/28 08:58:03;;;;;;;24.05;14.88;;;2.00;99.90;;;;;;4846284;29;20486;-76
2024/01/28 09:00:28;;;;;;;23.08;12.80;;;2.10;99.90;;;;;;4845730;29;20085;-77
2024/01/28 09:02:54;;;;;;;22.75;12.05;;;2.20;99.90;;;;;;4845971;29;20056;-76
2024/01/28 09:05:20;;;;;;;29.83;12.32;;;2.30;99.90;;;;;;4846166;29;20081;-76
2024/01/28 09:07:45;;;;;;;20.92;12.68;;;2.40;99.90;;;;;;4846037;29;20064;-78
2024/01/28 09:10:11;;;;;;;30.25;13.02;;;2.50;99.90;;;;;;4845484;29;20045;-75
2024/01/28 09:12:39;;;;;;;20.05;13.02;;;2.60;99.90;;;;;;4845740;29;20109;-75
2024/01/28 09:15:05;;;;;;;17.10;10.35;;;2.70;99.90;;;;;;4857693;29;20053;-76
2024/01/28 09:17:30;;;;;;;21.60;10.85;;;2.80;99.90;;;;;;4863441;29;20045;-76
2024/01/28 09:19:56;;;;;;;18.38;9.35;;;3.00;99.90;;;;;;4861823;29;20053;-76
2024/01/28 09:22:22;;;;;;;16.98;9.27;;;3.10;99.90;;;;;;4863866;29;20112;-76
2024/01/28 09:24:47;;;;;;;21.80;10.50;;;3.20;99.90;;;;;;4863982;29;20053;-76
2024/01/28 09:27:13;;;;;;;18.23;10.15;;;3.40;99.90;;;;;;4863659;29;20056;-76
2024/01/28 09:29:38;;;;;;;22.70;10.57;;;3.50;99.90;;;;;;4863956;29;20421;-77
2024/01/28 09:32:07;;;;;;;15.85;9.02;;;3.50;99.90;;;;;;4863672;29;20085;-76
2024/01/28 09:34:33;;;;;;;18.08;8.77;;;3.50;99.90;;;;;;4863813;29;20044;-76
2024/01/28 09:36:59;;;;;;;21.38;9.82;;;3.50;99.90;;;;;;4864046;29;20049;-76
2024/01/28 09:39:25;;;;;;;15.95;8.73;;;3.40;99.90;;;;;;4863761;29;20144;-77
2024/01/28 09:42:33;;;;;;;18.95;9.63;;;3.40;99.90;;;;;;4863725;29;20049;-77
2024/01/28 09:44:59;;;;;;;25.98;8.65;;;3.40;99.90;;;;;;4851150;29;20133;-77
2024/01/28 09:47:25;;;;;;;16.88;8.77;;;3.40;99.90;;;;;;4863474;29;20458;-77
2024/01/28 09:49:51;;;;;;;14.50;8.85;;;3.40;99.90;;;;;;4863470;29;20113;-77
2024/01/28 09:52:17;;;;;;;15.82;8.20;;;3.30;99.90;;;;;;4863791;29;20049;-76
2024/01/28 09:54:46;;;;;;;11.48;7.18;;;3.40;99.90;;;;;;4863177;29;20045;-78
2024/01/28 09:57:12;;;;;;;16.95;8.07;;;3.40;99.90;;;;;;4863642;29;20154;-77
2024/01/28 09:59:38;;;;;;;14.18;7.88;;;3.40;99.90;;;;;;4863570;29;20076;-78
2024/01/28 10:02:05;;;;;;;19.85;8.27;;;3.40;99.90;;;;;;4869588;29;20045;-76
2024/01/28 10:04:32;;;;;;;14.15;7.65;;;3.50;99.90;;;;;;4879211;29;20052;-77
2024/01/28 10:07:02;;;;;;;16.05;8.63;;;3.70;99.90;;;;;;4871446;29;20046;-76
2024/01/28 10:09:28;;;;;;;14.02;8.25;;;3.80;99.90;;;;;;4844580;29;20181;-77
2024/01/28 10:12:00;;;;;;;13.30;7.47;;;4.00;99.90;;;;;;4872784;29;20108;-76
2024/01/28 10:14:27;;;;;;;14.77;7.43;;;4.10;99.90;;;;;;4862984;29;20057;-76
2024/01/28 10:16:54;;;;;;;14.63;7.93;;;4.20;99.90;;;;;;4879190;29;20082;-76
2024/01/28 10:19:20;;;;;;;14.55;7.88;;;4.30;99.90;;;;;;4863023;29;20057;-75
2024/01/28 10:21:46;;;;;;;14.32;7.63;;;4.40;99.90;;;;;;4862477;29;20140;-76
2024/01/28 10:24:14;;;;;;;15.57;8.23;;;4.50;99.90;;;;;;4862927;29;20425;-77
2024/01/28 10:26:43;;;;;;;13.93;8.10;;;4.50;99.90;;;;;;4862815;29;20435;-75
2024/01/28 10:29:10;;;;;;;11.68;6.63;;;4.60;99.90;;;;;;4878977;29;20056;-76
2024/01/28 10:31:37;;;;;;;17.98;6.90;;;4.60;99.90;;;;;;4862592;29;20056;-80
2024/01/28 10:34:03;;;;;;;15.10;7.28;;;4.70;99.90;;;;;;4854545;29;20059;-77
2024/01/28 10:36:36;;;;;;;13.63;7.22;;;4.80;99.90;;;;;;4879583;29;20053;-76
2024/01/28 10:39:07;;;;;;;13.02;6.68;;;4.80;99.90;;;;;;4862916;29;20052;-77
2024/01/28 10:41:32;;;;;;;12.20;7.10;;;4.90;99.90;;;;;;4863101;29;20493;-77
2024/01/28 10:44:01;;;;;;;16.88;6.95;;;5.00;99.90;;;;;;4862801;29;20092;-76
2024/01/28 10:46:41;;;;;;;15.65;6.97;;;5.00;99.90;;;;;;4879444;29;20045;-76
2024/01/28 10:49:09;;;;;;;11.60;6.00;;;5.10;99.90;;;;;;4862839;29;20061;-77
2024/01/28 10:51:39;;;;;;;11.27;6.22;;;5.20;99.90;;;;;;4862676;29;20049;-76
2024/01/28 10:54:10;;;;;;;14.60;6.85;;;5.20;99.90;;;;;;4862404;29;20049;-77
2024/01/28 10:56:39;;;;;;;13.73;6.93;;;5.30;99.90;;;;;;4862736;29;20128;-77
2024/01/28 10:59:05;;;;;;;16.50;7.45;;;5.40;99.90;;;;;;4862757;29;20137;-76
2024/01/28 11:01:33;;;;;;;12.40;6.05;;;5.50;99.90;;;;;;4862460;29;20127;-77
2024/01/28 11:04:00;;;;;;;11.00;6.15;;;5.50;99.90;;;;;;4862470;29;20519;-77
2024/01/28 11:06:27;;;;;;;11.98;6.30;;;5.60;99.90;;;;;;4862538;29;20493;-77
2024/01/28 11:08:56;;;;;;;11.82;6.05;;;5.70;99.90;;;;;;4862477;29;20106;-77
2024/01/28 11:11:22;;;;;;;12.75;6.93;;;5.70;99.90;;;;;;4862224;29;20417;-77
2024/01/28 11:13:49;;;;;;;11.93;6.80;;;5.80;99.90;;;;;;4862154;29;20049;-77
2024/01/28 11:16:15;;;;;;;13.07;6.18;;;5.90;99.90;;;;;;4862597;29;20053;-77
2024/01/28 11:19:10;;;;;;;10.20;6.55;;;5.90;99.90;;;;;;4862454;29;20135;-77
2024/01/28 11:21:43;;;;;;;17.90;6.03;;;6.00;99.90;;;;;;4862735;29;20061;-77
2024/01/28 11:24:09;;;;;;;15.55;6.38;;;6.00;99.90;;;;;;4862497;29;20155;-77
2024/01/28 11:26:38;;;;;;;13.30;5.68;;;6.00;99.90;;;;;;4862519;29;20485;-76
2024/01/28 11:29:10;;;;;;;15.80;6.88;;;6.10;99.90;;;;;;4862756;29;20045;-76
2024/01/28 11:31:40;;;;;;;11.77;6.05;;;6.20;99.90;;;;;;4862520;29;20045;-77
2024/01/28 11:34:19;;;;;;;9.88;5.97;;;6.30;99.90;;;;;;4862703;29;20057;-77
2024/01/28 11:36:47;;;;;;;13.82;6.10;;;6.40;99.90;;;;;;4862201;29;20473;-77
2024/01/28 11:39:15;;;;;;;11.02;5.47;;;6.50;99.90;;;;;;4862642;29;20053;-77
2024/01/28 11:41:43;;;;;;;9.73;5.80;;;6.60;99.90;;;;;;4861905;29;20045;-77
2024/01/28 11:44:09;;;;;;;13.50;5.82;;;6.60;99.90;;;;;;4862330;29;20163;-77
2024/01/28 11:46:36;;;;;;;11.90;5.45;;;6.60;99.90;;;;;;4862207;29;20127;-77
2024/01/28 11:49:03;;;;;;;12.10;5.93;;;6.70;99.90;;;;;;4862210;29;20092;-78
2024/01/28 11:51:33;;;;;;;13.05;5.07;;;6.70;99.90;;;;;;4865612;29;20124;-78
2024/01/28 11:54:03;;;;;;;15.90;6.10;;;6.80;99.90;;;;;;4882303;29;20045;-76
2024/01/28 11:56:31;;;;;;;13.38;6.18;;;6.80;99.90;;;;;;4865855;29;20054;-76
2024/01/28 11:58:56;;;;;;;10.98;6.13;;;6.80;99.90;;;;;;4882003;29;20088;-76
2024/01/28 12:01:23;;;;;;;9.48;6.68;;;6.80;99.90;;;;;;4865428;29;20077;-76
2024/01/28 12:03:55;;;;;;;12.45;7.70;;;6.80;99.90;;;;;;4882353;29;20067;-76
2024/01/28 12:06:27;;;;;;;12.40;6.18;;;7.00;99.90;;;;;;4865642;29;20405;-76
2024/01/28 12:08:53;;;;;;;14.57;6.50;;;7.00;99.90;;;;;;4865277;29;20528;-75
2024/01/28 12:11:30;;;;;;;10.88;5.55;;;7.10;99.90;;;;;;4864983;29;20060;-76
2024/01/28 12:13:57;;;;;;;10.65;6.00;;;7.10;99.90;;;;;;4865318;29;20140;-76
2024/01/28 12:16:24;;;;;;;13.48;6.03;;;7.20;99.90;;;;;;4865256;29;20128;-76
2024/01/28 12:18:53;;;;;;;11.95;5.95;;;7.20;99.90;;;;;;4865105;29;20053;-75
2024/01/28 12:21:24;;;;;;;11.93;5.85;;;7.30;99.90;;;;;;4865175;29;20045;-74
2024/01/28 12:23:59;;;;;;;8.15;4.50;;;7.30;99.90;;;;;;4864919;29;20064;-75
2024/01/28 12:26:34;;;;;;;8.07;5.05;;;7.30;99.90;;;;;;4865275;29;20121;-74
2024/01/28 12:29:02;;;;;;;11.45;5.25;;;7.40;99.90;;;;;;4864435;29;20116;-74
2024/01/28 12:31:28;;;;;;;8.65;4.85;;;7.40;99.90;;;;;;4865213;29;20067;-79
2024/01/28 12:33:53;;;;;;;12.77;5.78;;;7.40;99.90;;;;;;4864982;29;20064;-74
2024/01/28 12:36:19;;;;;;;11.20;4.75;;;7.40;99.90;;;;;;4864880;29;20055;-75
2024/01/28 12:38:45;;;;;;;10.60;5.32;;;7.50;99.90;;;;;;4881827;29;20056;-75